Time;durP1;ratioP1;P1;durP2;ratioP2;P2;SDS_P1;SDS_P2;PMS_P1;PMS_P2;Temp;Humidity;BMP_temperature;BMP_pressure;BME280_temperature;BME280_humidity;BME280_pressure;Samples;Min_cycle;Max_cycle;Signal;HPM_P1;HPM_P2
2023/10/01 00:00:12;;;;;;;11.13;4.10;;;15.30;99.90;;;;;;5074091;28;20124;-66
2023/10/01 00:02:39;;;;;;;13.15;4.80;;;15.30;99.90;;;;;;5045370;28;20076;-66
2023/10/01 00:05:06;;;;;;;19.20;4.95;;;15.30;99.90;;;;;;5045846;28;20053;-65
2023/10/01 00:07:36;;;;;;;13.00;4.50;;;15.30;99.90;;;;;;5074880;28;20040;-66
2023/10/01 00:10:10;;;;;;;14.52;4.53;;;15.30;99.90;;;;;;5062644;28;21035;-66
2023/10/01 00:12:56;;;;;;;12.23;4.13;;;15.30;99.90;;;;;;5036905;28;20044;-66
2023/10/01 00:15:24;;;;;;;17.23;4.90;;;15.30;99.90;;;;;;5051598;28;20049;-66
2023/10/01 00:17:50;;;;;;;18.05;4.65;;;15.30;99.90;;;;;;5053111;28;20127;-66
2023/10/01 00:22:51;;;;;;;13.20;4.32;;;15.20;99.90;;;;;;5064449;28;20052;-65
2023/10/01 00:25:18;;;;;;;11.95;4.20;;;15.20;99.90;;;;;;5065099;28;20141;-65
2023/10/01 00:27:44;;;;;;;14.98;4.65;;;15.20;99.90;;;;;;5063924;28;20379;-66
2023/10/01 00:30:11;;;;;;;11.05;3.83;;;15.20;99.90;;;;;;5064078;28;20055;-65
2023/10/01 00:32:39;;;;;;;18.23;4.40;;;15.20;99.90;;;;;;5063080;28;20457;-65
2023/10/01 00:35:06;;;;;;;16.50;4.38;;;15.20;99.90;;;;;;5055068;28;20125;-65
2023/10/01 00:37:33;;;;;;;12.23;4.47;;;15.20;99.90;;;;;;5054508;28;20048;-66
2023/10/01 00:40:00;;;;;;;15.80;4.72;;;15.20;99.90;;;;;;5073101;28;20406;-67
2023/10/01 00:42:32;;;;;;;18.17;4.60;;;15.20;99.90;;;;;;5044477;28;20056;-69
2023/10/01 00:44:58;;;;;;;12.60;4.35;;;15.20;99.90;;;;;;5063476;28;20402;-70
2023/10/01 00:47:26;;;;;;;14.07;4.47;;;15.20;99.90;;;;;;5070481;28;20069;-70
2023/10/01 00:49:52;;;;;;;12.77;4.72;;;15.20;99.90;;;;;;5064478;28;20102;-69
2023/10/01 00:52:20;;;;;;;13.45;4.35;;;15.20;99.90;;;;;;5066941;28;20040;-69
2023/10/01 00:54:46;;;;;;;15.48;5.35;;;15.10;99.90;;;;;;5081918;28;20076;-69
2023/10/01 00:57:14;;;;;;;14.20;5.28;;;15.20;99.90;;;;;;5082064;28;20045;-68
2023/10/01 00:59:40;;;;;;;13.10;3.97;;;15.20;99.90;;;;;;5067848;28;20049;-69
2023/10/01 01:02:07;;;;;;;16.08;4.82;;;15.10;99.90;;;;;;5062081;28;20117;-68
2023/10/01 01:04:44;;;;;;;18.52;4.75;;;15.10;99.90;;;;;;5055472;28;20512;-69
2023/10/01 01:07:19;;;;;;;15.68;5.15;;;15.10;99.90;;;;;;5057702;28;20545;-69
2023/10/01 01:09:46;;;;;;;12.98;4.97;;;15.10;99.90;;;;;;5063525;28;20147;-69
2023/10/01 01:12:17;;;;;;;15.50;5.30;;;15.10;99.90;;;;;;5040885;28;20048;-70
2023/10/01 01:14:47;;;;;;;16.55;5.68;;;15.10;99.90;;;;;;5054459;28;20148;-69
2023/10/01 01:17:14;;;;;;;15.23;5.25;;;15.10;99.90;;;;;;5047941;28;20094;-69
2023/10/01 01:19:42;;;;;;;14.65;4.90;;;15.10;99.90;;;;;;5047615;28;20037;-69
2023/10/01 01:22:09;;;;;;;16.25;5.70;;;15.10;99.90;;;;;;5052188;28;20044;-72
2023/10/01 01:24:36;;;;;;;11.40;5.07;;;15.10;99.90;;;;;;5043105;28;20594;-69
2023/10/01 01:27:05;;;;;;;15.65;5.75;;;15.10;99.90;;;;;;5048475;28;20412;-69
2023/10/01 01:29:40;;;;;;;16.10;5.65;;;15.00;99.90;;;;;;5034930;28;20040;-70
2023/10/01 01:32:15;;;;;;;16.35;5.80;;;15.00;99.90;;;;;;5046529;28;20059;-69
2023/10/01 01:34:43;;;;;;;17.00;5.90;;;15.00;99.90;;;;;;5028216;28;20053;-69
2023/10/01 01:37:30;;;;;;;16.63;6.10;;;15.00;99.90;;;;;;5045509;28;20052;-70
2023/10/01 01:39:57;;;;;;;15.55;6.07;;;15.00;99.90;;;;;;5057518;28;20060;-70
2023/10/01 01:42:24;;;;;;;18.17;5.93;;;15.00;99.90;;;;;;5077626;28;20059;-69
2023/10/01 01:47:38;;;;;;;17.75;6.10;;;15.00;99.90;;;;;;5057952;28;20059;-69
2023/10/01 01:50:18;;;;;;;15.55;6.35;;;15.00;99.90;;;;;;5064644;28;20044;-69
2023/10/01 01:52:50;;;;;;;16.03;5.70;;;15.00;99.90;;;;;;5062991;28;20409;-69
2023/10/01 01:55:29;;;;;;;14.98;6.07;;;15.00;99.90;;;;;;5057882;28;20044;-69
2023/10/01 01:58:08;;;;;;;14.23;5.55;;;15.00;99.90;;;;;;5055897;28;20595;-69
2023/10/01 02:00:39;;;;;;;15.30;6.32;;;15.00;99.90;;;;;;5049798;28;20067;-69
2023/10/01 02:03:17;;;;;;;18.55;6.32;;;15.00;99.90;;;;;;5032137;28;20421;-69
2023/10/01 02:05:47;;;;;;;16.63;6.20;;;15.00;99.90;;;;;;5051564;28;20049;-68
2023/10/01 02:08:24;;;;;;;21.73;7.63;;;15.00;99.90;;;;;;5056118;28;20071;-69
2023/10/01 02:10:56;;;;;;;17.92;6.28;;;15.00;99.90;;;;;;5061638;28;20037;-69
2023/10/01 02:13:25;;;;;;;18.58;8.00;;;15.00;99.90;;;;;;5059137;28;20097;-69
2023/10/01 02:15:53;;;;;;;21.25;7.30;;;15.00;99.90;;;;;;5055551;28;20576;-69
2023/10/01 02:18:20;;;;;;;17.67;7.10;;;14.90;99.90;;;;;;5061237;28;20055;-69
2023/10/01 02:20:56;;;;;;;15.52;6.43;;;15.00;99.90;;;;;;5067351;28;20072;-69
2023/10/01 02:23:26;;;;;;;16.55;7.65;;;14.90;99.90;;;;;;5072296;28;20049;-69
2023/10/01 02:25:57;;;;;;;21.80;7.15;;;14.90;99.90;;;;;;5064058;28;20044;-70
2023/10/01 02:28:26;;;;;;;;;;;14.90;99.90;;;;;;5058603;28;20056;-69
2023/10/01 02:31:00;;;;;;;17.80;7.57;;;14.90;99.90;;;;;;5067493;28;19928;-69
2023/10/01 02:36:12;;;;;;;19.27;8.00;;;14.90;99.90;;;;;;5057894;28;20418;-69
2023/10/01 02:38:45;;;;;;;18.85;8.18;;;14.90;99.90;;;;;;5050398;28;20181;-69
2023/10/01 02:41:15;;;;;;;18.42;8.30;;;14.90;99.90;;;;;;5066984;28;20425;-69
2023/10/01 02:43:41;;;;;;;20.45;7.97;;;14.90;99.90;;;;;;5062488;28;20047;-70
2023/10/01 02:46:15;;;;;;;21.42;8.30;;;14.90;99.90;;;;;;5065224;28;20082;-68
2023/10/01 02:48:42;;;;;;;20.60;9.05;;;14.90;99.90;;;;;;5067159;28;20049;-69
2023/10/01 02:51:14;;;;;;;23.15;9.40;;;14.90;99.90;;;;;;5068122;28;20053;-68
2023/10/01 02:54:03;;;;;;;20.40;8.48;;;14.80;99.90;;;;;;5066120;28;20059;-69
2023/10/01 02:56:37;;;;;;;15.13;7.57;;;14.80;99.90;;;;;;5083281;28;20037;-69
2023/10/01 02:59:13;;;;;;;19.55;8.23;;;14.80;99.90;;;;;;5067273;28;20098;-68
2023/10/01 03:01:42;;;;;;;19.30;8.32;;;14.80;99.90;;;;;;5067479;28;20040;-69
2023/10/01 03:04:10;;;;;;;20.45;9.13;;;14.80;99.90;;;;;;5061075;28;20057;-69
2023/10/01 03:06:47;;;;;;;21.00;8.10;;;14.90;99.90;;;;;;5064714;28;20039;-69
2023/10/01 03:09:34;;;;;;;16.80;7.90;;;14.80;99.90;;;;;;5049458;28;20045;-69
2023/10/01 03:15:15;;;;;;;18.48;7.82;;;14.80;99.90;;;;;;5065572;28;20041;-69
2023/10/01 03:18:34;;;;;;;17.98;8.20;;;14.80;99.90;;;;;;5067466;28;20041;-69
2023/10/01 03:23:04;;;;;;;20.98;8.50;;;14.80;99.90;;;;;;5066185;28;20771;-68
2023/10/01 03:25:40;;;;;;;19.10;7.93;;;14.80;99.90;;;;;;5066935;28;20076;-69
2023/10/01 03:28:11;;;;;;;17.92;8.20;;;14.80;99.90;;;;;;5065988;28;20097;-68
2023/10/01 03:30:40;;;;;;;17.27;8.30;;;14.80;99.90;;;;;;5067173;28;20626;-69
2023/10/01 03:33:08;;;;;;;21.85;8.30;;;14.80;99.90;;;;;;5060621;28;20055;-69
2023/10/01 03:35:35;;;;;;;18.45;7.95;;;14.80;99.90;;;;;;5061850;28;20173;-69
2023/10/01 03:38:09;;;;;;;22.23;8.05;;;14.80;99.90;;;;;;5060677;28;20501;-70
2023/10/01 03:40:57;;;;;;;19.02;7.70;;;14.80;99.90;;;;;;5065533;28;20053;-69
2023/10/01 03:43:31;;;;;;;18.17;7.85;;;14.80;99.90;;;;;;5060201;28;20616;-70
2023/10/01 03:46:42;;;;;;;17.52;7.97;;;14.80;99.90;;;;;;5065237;28;20148;-69
2023/10/01 03:48:58;;;;;;;17.23;8.05;;;14.80;99.90;;;;;;5062986;28;20049;-69
2023/10/01 03:54:20;;;;;;;16.58;8.27;;;14.80;99.90;;;;;;5067081;28;20587;-69
2023/10/01 03:56:56;;;;;;;16.45;8.30;;;14.90;99.90;;;;;;5082023;28;20044;-70
2023/10/01 03:59:32;;;;;;;16.67;7.97;;;14.80;99.90;;;;;;5064728;28;20064;-69
2023/10/01 04:01:58;;;;;;;13.95;7.68;;;14.80;99.90;;;;;;5068958;28;20056;-69
2023/10/01 04:04:31;;;;;;;17.70;7.88;;;14.80;99.90;;;;;;5052854;28;20040;-70
2023/10/01 04:07:02;;;;;;;17.83;8.13;;;14.90;99.90;;;;;;5051978;28;20131;-70
2023/10/01 04:09:28;;;;;;;23.40;8.18;;;14.80;99.90;;;;;;5074622;28;20457;-70
2023/10/01 04:12:18;;;;;;;20.20;9.02;;;14.90;99.90;;;;;;5063760;28;20048;-69
2023/10/01 04:14:48;;;;;;;16.73;7.65;;;14.80;99.90;;;;;;5064690;28;20051;-70
2023/10/01 04:17:17;;;;;;;16.45;7.97;;;14.80;99.90;;;;;;5058708;28;20449;-69
2023/10/01 04:19:48;;;;;;;21.33;8.60;;;14.90;99.90;;;;;;5073917;28;20052;-69
2023/10/01 04:22:15;;;;;;;;;;;14.90;99.90;;;;;;5068609;28;20458;-69
2023/10/01 04:24:42;;;;;;;16.70;7.53;;;14.90;99.90;;;;;;5060372;28;19924;-69
2023/10/01 04:27:23;;;;;;;19.10;7.85;;;14.80;99.90;;;;;;5058274;28;20048;-69
2023/10/01 04:29:57;;;;;;;19.33;7.25;;;14.90;99.90;;;;;;5052731;28;20094;-69
2023/10/01 04:32:29;;;;;;;18.42;7.72;;;14.90;99.90;;;;;;5056911;28;20052;-69
2023/10/01 04:35:11;;;;;;;18.80;7.90;;;14.90;99.90;;;;;;5076176;28;20091;-69
2023/10/01 04:37:37;;;;;;;19.30;8.05;;;14.90;99.90;;;;;;5054562;28;20581;-69
2023/10/01 04:40:31;;;;;;;16.58;7.45;;;14.90;99.90;;;;;;5052856;28;20041;-68
2023/10/01 04:42:55;;;;;;;16.00;7.80;;;14.80;99.90;;;;;;5056920;28;20087;-69
2023/10/01 04:45:23;;;;;;;18.83;6.40;;;14.90;99.90;;;;;;5056911;28;20601;-69
2023/10/01 04:47:56;;;;;;;17.13;7.88;;;14.90;99.90;;;;;;5057793;28;20033;-68
2023/10/01 04:50:29;;;;;;;16.20;7.05;;;14.80;99.90;;;;;;5037670;28;20115;-69
2023/10/01 04:53:01;;;;;;;16.10;7.65;;;14.80;99.90;;;;;;5050237;28;20060;-69
2023/10/01 04:55:28;;;;;;;19.30;7.38;;;14.80;99.90;;;;;;5062753;28;20048;-69
2023/10/01 04:57:57;;;;;;;16.33;7.10;;;14.90;99.90;;;;;;5065371;28;20123;-69
2023/10/01 05:00:26;;;;;;;18.45;7.20;;;14.90;99.90;;;;;;5065280;28;20072;-70
2023/10/01 05:02:52;;;;;;;18.55;7.35;;;14.90;99.90;;;;;;5062997;28;20044;-69
2023/10/01 05:05:25;;;;;;;16.88;7.20;;;14.80;99.90;;;;;;5056873;28;20504;-69
2023/10/01 05:07:57;;;;;;;15.70;7.63;;;14.90;99.90;;;;;;5065833;28;20417;-69
2023/10/01 05:10:26;;;;;;;17.45;6.88;;;14.80;99.90;;;;;;5064281;28;20039;-69
2023/10/01 05:13:02;;;;;;;17.08;7.50;;;14.90;99.90;;;;;;5047547;28;20189;-69
2023/10/01 05:15:36;;;;;;;17.02;6.95;;;14.90;99.90;;;;;;5066425;28;20048;-69
2023/10/01 05:18:02;;;;;;;19.45;7.38;;;14.90;99.90;;;;;;5050016;28;20041;-69
2023/10/01 05:20:28;;;;;;;20.58;7.70;;;14.90;99.90;;;;;;5069742;28;20033;-69
2023/10/01 05:22:57;;;;;;;21.98;7.93;;;14.90;99.90;;;;;;5068273;28;20113;-69
2023/10/01 05:25:27;;;;;;;20.40;7.43;;;14.80;99.90;;;;;;5068182;28;20048;-69
2023/10/01 05:27:56;;;;;;;17.05;7.65;;;14.90;99.90;;;;;;5066921;28;20642;-69
2023/10/01 05:30:42;;;;;;;16.65;7.32;;;14.80;99.90;;;;;;5068267;28;20048;-65
2023/10/01 05:33:12;;;;;;;16.63;7.97;;;14.80;99.90;;;;;;5062522;28;20084;-65
2023/10/01 05:35:44;;;;;;;15.95;7.13;;;14.80;99.90;;;;;;5064508;28;20079;-65
2023/10/01 05:38:16;;;;;;;14.52;7.00;;;14.80;99.90;;;;;;5060540;28;20063;-66
2023/10/01 05:40:45;;;;;;;16.65;7.38;;;14.90;99.90;;;;;;5071401;28;20049;-65
2023/10/01 05:43:14;;;;;;;15.32;7.90;;;14.80;99.90;;;;;;5078494;28;20091;-65
2023/10/01 05:45:41;;;;;;;15.95;7.75;;;14.80;99.90;;;;;;5079537;28;20075;-65
2023/10/01 05:48:10;;;;;;;15.75;7.78;;;14.90;99.90;;;;;;5065881;28;20501;-65
2023/10/01 05:50:41;;;;;;;18.10;7.30;;;14.80;99.90;;;;;;5069062;28;20051;-65
2023/10/01 05:53:09;;;;;;;16.05;7.22;;;15.00;99.90;;;;;;5062335;28;20154;-65
2023/10/01 05:55:37;;;;;;;20.95;7.80;;;14.80;99.90;;;;;;5071521;28;20033;-66
2023/10/01 05:58:13;;;;;;;21.33;7.43;;;14.80;99.90;;;;;;5064038;28;20044;-66
2023/10/01 06:01:05;;;;;;;19.42;7.60;;;14.80;99.90;;;;;;5067801;28;20513;-65
2023/10/01 06:03:32;;;;;;;18.10;7.50;;;14.80;99.90;;;;;;5070918;28;20491;-65
2023/10/01 06:05:58;;;;;;;15.10;7.25;;;14.80;99.90;;;;;;5073984;28;20414;-65
2023/10/01 06:08:25;;;;;;;16.48;7.13;;;14.80;99.90;;;;;;5056476;28;20044;-65
2023/10/01 06:11:13;;;;;;;17.67;7.20;;;14.80;99.90;;;;;;5055377;28;20044;-65
2023/10/01 06:13:48;;;;;;;15.70;7.30;;;14.80;99.90;;;;;;5072123;28;20088;-65
2023/10/01 06:16:25;;;;;;;16.27;6.72;;;14.80;99.90;;;;;;5055978;28;20060;-65
2023/10/01 06:18:59;;;;;;;14.52;7.20;;;14.80;99.90;;;;;;5059789;28;20045;-65
2023/10/01 06:21:26;;;;;;;13.75;6.55;;;14.80;99.90;;;;;;5031323;28;20047;-65
2023/10/01 06:23:53;;;;;;;19.88;7.47;;;14.80;99.90;;;;;;5048233;28;20065;-65
2023/10/01 06:26:22;;;;;;;17.70;7.53;;;14.80;99.90;;;;;;5045506;28;20417;-65
2023/10/01 06:28:49;;;;;;;16.23;7.50;;;14.80;99.90;;;;;;5042074;28;20036;-65
2023/10/01 06:31:20;;;;;;;17.98;6.72;;;14.80;99.90;;;;;;5047773;28;20072;-66
2023/10/01 06:33:47;;;;;;;18.30;7.60;;;14.80;99.90;;;;;;5046356;28;20045;-65
2023/10/01 06:36:16;;;;;;;13.70;6.38;;;14.80;99.90;;;;;;5046107;28;20041;-65
2023/10/01 06:38:44;;;;;;;16.15;6.68;;;14.80;99.90;;;;;;5060610;28;20125;-65
2023/10/01 06:41:16;;;;;;;18.10;7.72;;;14.80;99.90;;;;;;5049851;28;20052;-65
2023/10/01 06:43:54;;;;;;;;;;;14.80;99.90;;;;;;5061305;28;20048;-65
2023/10/01 06:46:27;;;;;;;16.42;7.53;;;14.90;99.90;;;;;;5056605;28;20023;-66
2023/10/01 06:48:58;;;;;;;17.30;7.40;;;14.90;99.90;;;;;;5047622;28;20079;-65
2023/10/01 06:51:26;;;;;;;18.63;7.28;;;14.90;99.90;;;;;;5053151;28;20089;-65
2023/10/01 06:53:59;;;;;;;17.48;7.03;;;14.90;99.90;;;;;;5046988;28;20055;-65
2023/10/01 06:56:27;;;;;;;17.33;7.13;;;14.90;99.90;;;;;;5049043;28;20052;-66
2023/10/01 06:59:27;;;;;;;14.25;6.78;;;14.90;99.90;;;;;;5050725;28;20089;-66
2023/10/01 07:01:49;;;;;;;18.10;6.72;;;14.90;99.90;;;;;;5049178;28;20049;-65
2023/10/01 07:04:23;;;;;;;18.75;7.68;;;15.00;99.90;;;;;;5053041;28;20544;-65
2023/10/01 07:06:53;;;;;;;19.48;7.13;;;15.00;99.90;;;;;;5047304;28;20131;-66
2023/10/01 07:09:38;;;;;;;18.42;7.82;;;15.00;99.90;;;;;;5064284;28;20399;-65
2023/10/01 07:12:04;;;;;;;21.95;7.60;;;15.00;99.90;;;;;;5050720;28;20059;-66
2023/10/01 07:14:38;;;;;;;20.95;6.93;;;15.00;99.90;;;;;;5049932;28;20051;-65
2023/10/01 07:17:08;;;;;;;19.90;6.72;;;15.00;99.90;;;;;;5041765;28;20053;-65
2023/10/01 07:19:35;;;;;;;19.35;7.63;;;15.00;99.90;;;;;;5057499;28;20750;-65
2023/10/01 07:22:06;;;;;;;18.45;6.93;;;15.10;99.90;;;;;;5050750;28;20072;-66
2023/10/01 07:24:33;;;;;;;17.52;7.45;;;15.00;99.90;;;;;;5059831;28;20087;-66
2023/10/01 07:27:03;;;;;;;16.80;6.78;;;15.10;99.90;;;;;;5053789;28;20060;-66
2023/10/01 07:29:39;;;;;;;16.27;7.60;;;15.10;99.90;;;;;;5054117;28;20131;-66
2023/10/01 07:32:07;;;;;;;19.23;7.10;;;15.10;99.90;;;;;;5069709;28;20417;-66
2023/10/01 07:34:39;;;;;;;17.05;7.50;;;15.10;99.90;;;;;;5060887;28;20068;-66
2023/10/01 07:37:05;;;;;;;16.98;6.82;;;15.10;99.90;;;;;;5055603;28;20059;-66
2023/10/01 07:39:36;;;;;;;19.83;7.63;;;15.10;99.90;;;;;;5052672;28;20049;-66
2023/10/01 07:42:05;;;;;;;16.55;6.88;;;15.20;99.90;;;;;;5065295;28;20131;-66
2023/10/01 07:44:36;;;;;;;17.00;7.82;;;15.20;99.90;;;;;;5045264;28;20052;-66
2023/10/01 07:47:06;;;;;;;25.75;7.90;;;15.20;99.90;;;;;;5050656;28;20467;-66
2023/10/01 07:49:48;;;;;;;20.05;7.45;;;15.20;99.90;;;;;;5033724;28;20056;-67
2023/10/01 07:52:17;;;;;;;15.38;6.93;;;15.20;99.90;;;;;;5048351;28;20095;-66
2023/10/01 07:54:47;;;;;;;17.67;6.93;;;15.20;99.90;;;;;;5055731;28;20036;-66
2023/10/01 07:57:15;;;;;;;15.80;6.83;;;15.30;99.90;;;;;;5046568;28;20053;-66
2023/10/01 07:59:43;;;;;;;14.85;6.70;;;15.20;99.90;;;;;;5041773;28;20303;-66
2023/10/01 08:04:57;;;;;;;17.70;7.78;;;15.30;99.90;;;;;;5047997;28;20048;-65
2023/10/01 08:07:30;;;;;;;19.85;6.55;;;15.30;99.90;;;;;;5054004;28;20159;-66
2023/10/01 08:09:59;;;;;;;17.30;6.82;;;15.30;99.90;;;;;;5046118;28;20399;-66
2023/10/01 08:12:29;;;;;;;21.35;7.22;;;15.40;99.90;;;;;;5052267;28;20044;-65
2023/10/01 08:15:29;;;;;;;20.75;7.30;;;15.30;99.90;;;;;;5054498;28;20078;-66
2023/10/01 08:17:56;;;;;;;17.45;6.25;;;15.30;99.90;;;;;;5047515;28;20050;-66
2023/10/01 08:20:22;;;;;;;18.88;6.63;;;15.30;99.90;;;;;;5052306;28;20411;-66
2023/10/01 08:25:33;;;;;;;16.63;6.85;;;15.30;99.90;;;;;;5062235;28;20513;-66
2023/10/01 08:28:08;;;;;;;15.60;6.45;;;15.40;99.90;;;;;;5053076;28;20139;-66
2023/10/01 08:30:43;;;;;;;21.88;7.45;;;15.40;99.90;;;;;;5047887;28;20758;-66
2023/10/01 08:33:19;;;;;;;17.55;6.40;;;15.40;99.90;;;;;;5052944;28;20669;-66
2023/10/01 08:35:56;;;;;;;17.92;6.93;;;15.50;99.90;;;;;;5065722;28;20139;-65
2023/10/01 08:38:25;;;;;;;15.20;7.15;;;15.50;99.90;;;;;;5047512;28;20081;-66
2023/10/01 08:40:59;;;;;;;15.60;6.32;;;15.60;99.90;;;;;;5053074;28;20732;-66
2023/10/01 08:43:30;;;;;;;19.58;6.40;;;15.60;99.90;;;;;;5045524;28;20599;-66
2023/10/01 08:46:00;;;;;;;18.60;6.93;;;15.70;99.90;;;;;;5047798;28;20190;-66
2023/10/01 08:48:35;;;;;;;22.45;7.65;;;15.70;99.90;;;;;;5050171;28;20454;-65
2023/10/01 08:51:11;;;;;;;16.15;7.22;;;15.80;99.90;;;;;;5069030;28;20052;-65
2023/10/01 08:53:41;;;;;;;21.33;7.05;;;15.90;99.90;;;;;;5059168;28;20040;-65
2023/10/01 08:56:32;;;;;;;18.40;6.78;;;16.00;99.90;;;;;;5033821;28;20049;-66
2023/10/01 08:58:59;;;;;;;17.88;7.38;;;16.10;99.90;;;;;;5066924;28;20048;-66
2023/10/01 09:01:29;;;;;;;23.33;7.75;;;16.20;99.90;;;;;;5061786;28;20044;-67
2023/10/01 09:03:57;;;;;;;21.50;7.28;;;16.30;99.90;;;;;;5056268;28;20045;-66
2023/10/01 09:06:26;;;;;;;19.83;7.07;;;16.30;99.90;;;;;;5051953;28;20041;-67
2023/10/01 09:08:59;;;;;;;20.02;7.55;;;16.40;99.90;;;;;;5037286;28;20227;-66
2023/10/01 09:11:36;;;;;;;18.70;7.28;;;16.40;99.90;;;;;;5019264;28;20413;-69
2023/10/01 09:14:17;;;;;;;20.63;6.95;;;16.60;99.90;;;;;;5019016;28;20037;-70
2023/10/01 09:16:57;;;;;;;20.92;6.82;;;16.70;99.90;;;;;;5042595;28;20099;-69
2023/10/01 09:19:30;;;;;;;18.63;6.40;;;16.80;99.90;;;;;;5060487;28;20048;-70
2023/10/01 09:22:15;;;;;;;21.38;7.40;;;17.00;99.90;;;;;;5060256;28;20571;-68
2023/10/01 09:24:55;;;;;;;20.65;7.18;;;17.00;99.90;;;;;;5030474;28;21080;-70
2023/10/01 09:27:25;;;;;;;19.67;7.78;;;17.10;99.90;;;;;;5031192;28;20044;-71
2023/10/01 09:30:27;;;;;;;16.85;6.47;;;17.30;99.90;;;;;;5049768;28;20044;-71
2023/10/01 09:32:54;;;;;;;22.05;7.18;;;17.30;99.90;;;;;;5050861;28;20053;-72
2023/10/01 09:35:30;;;;;;;18.85;7.32;;;17.40;99.90;;;;;;5046094;28;20041;-71
2023/10/01 09:38:10;;;;;;;19.80;7.40;;;17.50;99.90;;;;;;5046531;28;20331;-71
2023/10/01 09:40:44;;;;;;;18.80;7.10;;;17.50;99.90;;;;;;5035242;28;20044;-71
2023/10/01 09:43:24;;;;;;;21.65;7.30;;;17.60;99.90;;;;;;5042486;28;20048;-71
2023/10/01 09:45:54;;;;;;;16.95;6.75;;;17.60;99.90;;;;;;5054572;28;20056;-71
2023/10/01 09:48:32;;;;;;;22.95;8.23;;;17.70;99.90;;;;;;5049655;28;20051;-70
2023/10/01 09:51:08;;;;;;;16.40;6.88;;;17.70;99.90;;;;;;5055329;28;20098;-71
2023/10/01 09:54:02;;;;;;;18.80;6.43;;;17.80;99.90;;;;;;5051915;28;20048;-71
2023/10/01 09:56:30;;;;;;;18.88;6.63;;;17.80;99.90;;;;;;5036602;28;20151;-69
2023/10/01 09:58:58;;;;;;;18.35;6.38;;;17.90;99.90;;;;;;5067081;28;20037;-72
2023/10/01 10:01:30;;;;;;;19.27;7.45;;;17.90;99.90;;;;;;5041353;28;20053;-71
2023/10/01 10:03:57;;;;;;;;;;;17.90;99.90;;;;;;5059232;28;20416;-71
2023/10/01 10:06:25;;;;;;;22.20;7.20;;;17.90;99.90;;;;;;5043590;28;20023;-70
2023/10/01 10:09:03;;;;;;;18.52;7.50;;;18.00;99.90;;;;;;5051059;28;20048;-72
2023/10/01 10:11:40;;;;;;;21.25;7.63;;;18.00;99.90;;;;;;5054053;28;20084;-69
2023/10/01 10:14:25;;;;;;;16.77;6.85;;;18.10;99.90;;;;;;5036362;28;20033;-69
2023/10/01 10:17:18;;;;;;;23.08;6.72;;;18.20;99.90;;;;;;5054478;28;20570;-70
2023/10/01 10:20:24;;;;;;;20.98;7.18;;;18.30;99.90;;;;;;5055388;28;20060;-70
2023/10/01 10:23:16;;;;;;;20.55;7.57;;;18.40;99.90;;;;;;5044356;28;20079;-71
2023/10/01 10:25:45;;;;;;;19.48;6.78;;;18.50;99.90;;;;;;5047106;28;20052;-70
2023/10/01 10:28:24;;;;;;;21.98;7.22;;;18.50;99.90;;;;;;5027793;28;20055;-71
2023/10/01 10:31:32;;;;;;;18.50;7.18;;;18.50;99.90;;;;;;5047498;28;20055;-71
2023/10/01 10:34:26;;;;;;;24.55;7.75;;;18.60;99.90;;;;;;5059219;28;20044;-70
2023/10/01 10:36:54;;;;;;;22.83;7.97;;;18.60;99.90;;;;;;5071783;28;20068;-70
2023/10/01 10:39:44;;;;;;;18.15;7.28;;;18.60;99.90;;;;;;5057280;28;20348;-70
2023/10/01 10:42:30;;;;;;;18.92;6.88;;;18.60;99.90;;;;;;5049651;28;20045;-70
2023/10/01 10:45:20;;;;;;;20.90;7.45;;;18.60;99.90;;;;;;5052710;28;20063;-70
2023/10/01 10:47:58;;;;;;;21.20;7.82;;;18.60;99.90;;;;;;5052193;28;20046;-70
2023/10/01 10:50:46;;;;;;;21.45;7.00;;;18.60;99.90;;;;;;5050330;28;20072;-71
2023/10/01 10:53:19;;;;;;;18.05;7.32;;;18.60;99.90;;;;;;5053496;28;20045;-70
2023/10/01 10:55:54;;;;;;;19.85;7.63;;;18.60;99.90;;;;;;5044278;28;20118;-70
2023/10/01 10:58:24;;;;;;;20.15;7.13;;;18.60;99.90;;;;;;5052129;28;20155;-71
2023/10/01 11:00:52;;;;;;;15.82;7.07;;;18.60;99.90;;;;;;5047586;28;20052;-70
2023/10/01 11:03:40;;;;;;;16.73;7.07;;;18.60;99.90;;;;;;5042073;28;20048;-70
2023/10/01 11:06:23;;;;;;;20.45;7.75;;;18.70;99.90;;;;;;5053496;28;20046;-70
2023/10/01 11:08:51;;;;;;;17.02;6.35;;;18.70;99.90;;;;;;5053357;28;20041;-70
2023/10/01 11:11:39;;;;;;;19.35;6.93;;;18.70;99.90;;;;;;5055847;28;20053;-70
2023/10/01 11:14:12;;;;;;;19.67;7.60;;;18.70;99.90;;;;;;5067183;28;20041;-70
2023/10/01 11:16:44;;;;;;;16.88;7.07;;;18.80;99.90;;;;;;5055153;28;20048;-70
2023/10/01 11:19:14;;;;;;;17.75;6.68;;;18.90;99.90;;;;;;5055766;28;20048;-70
2023/10/01 11:21:55;;;;;;;18.40;7.10;;;18.90;99.90;;;;;;5057763;28;20052;-70
2023/10/01 11:24:29;;;;;;;19.27;6.95;;;19.00;99.90;;;;;;5055972;28;20061;-70
2023/10/01 11:27:18;;;;;;;17.05;6.90;;;19.00;99.90;;;;;;5054194;28;20818;-70
2023/10/01 11:30:24;;;;;;;18.90;6.85;;;19.00;99.90;;;;;;5054603;28;20084;-70
2023/10/01 11:35:37;;;;;;;17.50;7.40;;;19.10;99.90;;;;;;5047081;28;20048;-70
2023/10/01 11:38:11;;;;;;;15.90;6.50;;;19.20;99.90;;;;;;5048958;28;20045;-70
2023/10/01 11:43:27;;;;;;;17.70;6.95;;;19.20;99.90;;;;;;5056711;28;20052;-70
2023/10/01 11:46:25;;;;;;;20.42;7.93;;;19.30;99.90;;;;;;5035722;28;20044;-70
2023/10/01 11:49:14;;;;;;;21.92;7.80;;;19.30;99.90;;;;;;5036836;28;20045;-71
2023/10/01 11:51:45;;;;;;;17.25;7.13;;;19.30;99.90;;;;;;5051495;28;20044;-71
2023/10/01 11:54:15;;;;;;;17.98;7.82;;;19.30;99.90;;;;;;5035829;28;20128;-71
2023/10/01 11:56:46;;;;;;;16.95;6.72;;;19.40;99.90;;;;;;5058869;28;20048;-70
2023/10/01 11:59:20;;;;;;;19.33;6.63;;;19.40;99.90;;;;;;5049657;28;20064;-70
2023/10/01 12:01:51;;;;;;;19.48;6.88;;;19.40;99.90;;;;;;5054841;28;20109;-70
2023/10/01 12:04:25;;;;;;;20.38;8.27;;;19.40;99.90;;;;;;5054879;28;20060;-70
2023/10/01 12:06:52;;;;;;;20.83;6.85;;;19.40;99.90;;;;;;5051324;28;20052;-71
2023/10/01 12:09:18;;;;;;;16.08;6.95;;;19.40;99.90;;;;;;5036951;28;20702;-71
2023/10/01 12:12:02;;;;;;;17.90;8.25;;;19.50;99.90;;;;;;5055376;28;20461;-71
2023/10/01 12:14:32;;;;;;;17.35;6.63;;;19.50;99.90;;;;;;5057382;28;20469;-71
2023/10/01 12:17:01;;;;;;;17.25;7.38;;;19.50;99.90;;;;;;5050838;28;20099;-71
2023/10/01 12:19:29;;;;;;;19.13;7.60;;;19.50;99.90;;;;;;5064039;28;20949;-70
2023/10/01 12:22:09;;;;;;;19.20;8.10;;;19.60;99.90;;;;;;5061247;28;20071;-72
2023/10/01 12:24:39;;;;;;;17.70;7.65;;;19.60;99.90;;;;;;5046204;28;20049;-71
2023/10/01 12:27:11;;;;;;;21.52;7.72;;;19.60;99.90;;;;;;5061526;28;20056;-71
2023/10/01 12:29:44;;;;;;;20.77;7.13;;;19.70;99.90;;;;;;5044129;28;20510;-71
2023/10/01 12:32:11;;;;;;;18.48;7.30;;;19.70;99.90;;;;;;5045038;28;20060;-71
2023/10/01 12:34:38;;;;;;;19.25;7.65;;;19.80;99.90;;;;;;5047454;28;20037;-70
2023/10/01 12:37:46;;;;;;;17.48;7.53;;;19.90;99.90;;;;;;5046326;28;20136;-71
2023/10/01 12:40:13;;;;;;;21.10;7.60;;;19.90;99.90;;;;;;5039332;28;20859;-71
2023/10/01 12:42:38;;;;;;;18.63;8.27;;;20.00;99.90;;;;;;5045006;28;20075;-71
2023/10/01 12:45:14;;;;;;;19.40;8.25;;;20.00;99.90;;;;;;5032472;28;20131;-70
2023/10/01 12:47:50;;;;;;;18.55;7.40;;;20.10;99.90;;;;;;5048085;28;20167;-70
2023/10/01 12:50:26;;;;;;;26.13;7.13;;;20.10;99.90;;;;;;5045718;28;20102;-70
2023/10/01 12:53:18;;;;;;;20.02;8.48;;;20.20;99.90;;;;;;5052387;28;20375;-70
2023/10/01 12:55:39;;;;;;;21.20;7.95;;;20.20;99.90;;;;;;5065341;28;20075;-70
2023/10/01 12:58:06;;;;;;;18.77;7.35;;;20.20;99.90;;;;;;5030617;28;20041;-71
2023/10/01 13:00:45;;;;;;;20.27;7.85;;;20.20;99.90;;;;;;5046963;28;20060;-71
2023/10/01 13:03:19;;;;;;;21.30;7.90;;;20.20;99.90;;;;;;5050870;28;20081;-70
2023/10/01 13:05:47;;;;;;;20.70;8.20;;;20.30;99.90;;;;;;5046925;28;20083;-71
2023/10/01 13:08:27;;;;;;;21.58;8.38;;;20.30;99.90;;;;;;5064698;28;20045;-73
2023/10/01 13:10:54;;;;;;;22.10;7.97;;;20.30;99.90;;;;;;5050912;28;20037;-72
2023/10/01 13:13:20;;;;;;;17.88;7.28;;;20.30;99.90;;;;;;5053500;28;20048;-72
2023/10/01 13:15:54;;;;;;;18.48;7.32;;;20.30;99.90;;;;;;5049309;28;20229;-70
2023/10/01 13:18:28;;;;;;;20.27;8.13;;;20.40;99.90;;;;;;5069430;28;20052;-70
2023/10/01 13:23:28;;;;;;;21.15;7.68;;;20.40;99.90;;;;;;5050903;28;20060;-71
2023/10/01 13:26:06;;;;;;;22.45;8.48;;;20.40;99.90;;;;;;5064458;28;20045;-71
2023/10/01 13:28:46;;;;;;;22.70;9.25;;;20.40;99.90;;;;;;5033384;28;20045;-71
2023/10/01 13:40:10;;;;;;;22.13;9.27;;;20.50;99.90;;;;;;5060577;28;20051;-71
2023/10/01 14:09:50;;;;;;;21.85;8.80;;;20.60;99.90;;;;;;5054931;28;20055;-71
2023/10/01 14:15:02;;;;;;;24.05;8.95;;;20.60;99.90;;;;;;5057961;28;20517;-71
2023/10/01 14:17:28;;;;;;;20.83;8.60;;;20.60;99.90;;;;;;5074341;28;20687;-71